Dover, DE (19901)

12:20 PM EST on February 10, 2016 (GMT -0500)
St. Jones Commons (Sunde) | | Change Station
CLOSE
Current Station
Personal Weather Station
Location: Dover, DE
Elevation: 39 ft
Nearby Weather Stations

Elev 39 ft 39.13 °N, 75.51 °W | Updated 6 seconds ago

Mostly Cloudy
Mostly Cloudy
38.1 °F
Feels Like 38 °F
N
0.0
Wind Variable Wind from SSE
Gusts 6.0 mph

Today
High -- | Low -- °F
--% Chance of Precip.
Yesterday
High -- | Low -- °F
Precip. -- in
Pressure 29.75 in
Visibility 10.0 miles
Clouds Mostly Cloudy 3700 ft
Windchill 38 °F
Dew Point 25 °F
Humidity 59%
Rainfall 0.05 in
Snow Depth Not available.
7:00 AM 5:32 PM
Waxing Crescent, 6% visible
METAR KDOV 101658Z AUTO 27013G24KT 10SM BKN037 02/M05 A2974 RMK AO2 SLP074 T00151051 VISNO RWY19 CHINO RWY19 $
Pressure 29.75 in
Visibility 10.0 miles
Clouds Mostly Cloudy 3700 ft
Windchill 38 °F
Dew Point 25 °F
Humidity 59%
Rainfall 0.05 in
Snow Depth Not available.
7:00 AM 5:32 PM
Waxing Crescent, 6% visible
METAR KDOV 101658Z AUTO 27013G24KT 10SM BKN037 02/M05 A2974 RMK AO2 SLP074 T00151051 VISNO RWY19 CHINO RWY19 $

10-Day Weather Forecast

Almanac

Astronomy

Feb. 10, 2016 Rise Set
Actual Time
Civil Twilight
Nautical Twilight
Astronomical Twilight
Moon
Length of Visible Light
Length of Day
Tomorrow will be .
, % of the Moon is Illuminated

Today's Extremes

State Highs State Lows

Community

WunderPhotos

Upload Photos

1,891,893 photos uploaded!

WunderBlog® & News

Nearby

Air Quality

  Air Quality AQ Index Pollutant
Not available.

Snow Depth

Station Depth Elevation

Earthquake Activity

City Distance Mag. Time & Date
Minimum magnitude displayed is 2.5.

Coastal Water Temperatures

Place Temperature

Stations

Nearby Weather Stations

Station Location Temp. Windchill Dew Point Humidity Wind Precip. Elev Updated Type
                   

Watches & Warnings

There are currently no watches in effect.